createdAt,value
2019-06-27T00:04:03.040Z,7.27
2019-06-27T00:08:11.510Z,7.40
2019-06-27T00:12:20.012Z,7.13
2019-06-27T00:16:28.534Z,8.30
2019-06-27T00:20:37.022Z,8.23
2019-06-27T00:24:45.877Z,8.90
2019-06-27T00:28:54.362Z,8.27
2019-06-27T00:33:02.920Z,9.73
2019-06-27T00:37:11.391Z,8.33
2019-06-27T00:41:19.865Z,7.27
2019-06-27T00:45:28.717Z,8.70
2019-06-27T00:49:37.207Z,7.77
2019-06-27T00:53:45.688Z,8.07
2019-06-27T00:57:54.224Z,7.93
2019-06-27T01:02:02.714Z,7.80
2019-06-27T01:06:11.197Z,7.80
2019-06-27T01:10:20.420Z,7.00
2019-06-27T01:14:28.899Z,7.67
2019-06-27T01:18:37.450Z,7.50
2019-06-27T01:22:45.909Z,7.13
2019-06-27T01:26:54.464Z,8.63
2019-06-27T01:31:03.077Z,8.20
2019-06-27T01:35:11.822Z,7.13
2019-06-27T01:39:20.374Z,9.37
2019-06-27T01:43:28.835Z,8.83
2019-06-27T01:47:37.342Z,9.20
2019-06-27T01:51:45.814Z,9.03
2019-06-27T01:55:54.316Z,9.60
2019-06-27T02:00:03.981Z,8.80
2019-06-27T02:04:12.449Z,10.43
2019-06-27T02:08:20.945Z,10.43
2019-06-27T02:12:29.444Z,8.83
2019-06-27T02:16:37.945Z,10.43
2019-06-27T02:20:46.465Z,9.90
2019-06-27T02:24:54.955Z,10.60
2019-06-27T02:29:03.460Z,10.90
2019-06-27T02:33:12.105Z,10.60
2019-06-27T02:37:20.661Z,10.60
2019-06-27T02:41:29.174Z,12.37
2019-06-27T02:45:37.723Z,11.87
2019-06-27T02:49:49.906Z,11.50
2019-06-27T02:53:56.468Z,11.73
2019-06-27T02:58:27.909Z,10.87
2019-06-27T03:02:15.239Z,11.33
2019-06-27T03:06:23.694Z,11.57
2019-06-27T03:10:32.202Z,11.70
2019-06-27T03:14:40.792Z,10.37
2019-06-27T03:18:49.503Z,10.80
2019-06-27T03:22:58.009Z,11.00
2019-06-27T03:27:06.507Z,11.50
2019-06-27T03:31:15.050Z,10.57
2019-06-27T03:35:23.576Z,9.80
2019-06-27T03:39:32.152Z,10.40
2019-06-27T03:43:40.682Z,10.27
2019-06-27T03:48:08.533Z,9.37
2019-06-27T03:52:17.087Z,8.87
2019-06-27T03:56:25.573Z,10.03
2019-06-27T04:00:34.490Z,8.73
2019-06-27T04:04:43.066Z,9.90
2019-06-27T04:08:51.641Z,10.37
2019-06-27T04:13:00.150Z,9.03
2019-06-27T04:17:08.958Z,8.60
2019-06-27T04:21:17.505Z,8.10
2019-06-27T04:25:26.078Z,7.92
2019-06-27T04:29:35.070Z,7.80
2019-06-27T04:33:43.827Z,7.57
2019-06-27T04:37:52.406Z,8.43
2019-06-27T04:42:00.973Z,8.67
2019-06-27T04:46:09.492Z,7.90
2019-06-27T04:50:18.017Z,8.77
2019-06-27T04:54:26.482Z,8.03
2019-06-27T04:58:34.960Z,9.23
2019-06-27T05:02:43.471Z,7.37
2019-06-27T05:06:51.964Z,7.60
2019-06-27T05:11:00.458Z,7.43
2019-06-27T05:15:09.025Z,7.47
2019-06-27T05:19:17.595Z,9.10
2019-06-27T05:23:26.136Z,8.50
2019-06-27T05:27:34.637Z,8.27
2019-06-27T05:31:43.139Z,7.87
2019-06-27T05:35:52.130Z,8.53
2019-06-27T05:40:00.625Z,7.23
2019-06-27T05:44:09.125Z,7.67
2019-06-27T05:48:17.613Z,8.17
2019-06-27T05:52:26.187Z,7.67
2019-06-27T05:56:34.640Z,8.37
2019-06-27T06:00:43.200Z,8.37
2019-06-27T06:04:51.704Z,8.60
2019-06-27T06:09:00.265Z,9.33
2019-06-27T06:13:08.732Z,8.33
2019-06-27T06:17:17.231Z,8.27
2019-06-27T06:21:25.694Z,8.53
2019-06-27T06:25:34.198Z,8.93
2019-06-27T06:29:42.681Z,8.07
2019-06-27T06:33:51.186Z,8.37
2019-06-27T06:38:00.621Z,8.20
2019-06-27T06:42:09.113Z,7.63
2019-06-27T06:46:19.233Z,9.03
2019-06-27T06:50:27.726Z,11.07
2019-06-27T06:54:36.235Z,9.10
2019-06-27T06:58:44.798Z,9.47
2019-06-27T07:02:53.346Z,9.43
2019-06-27T07:07:01.883Z,9.50
2019-06-27T07:11:10.394Z,11.53
2019-06-27T07:15:18.944Z,9.37
2019-06-27T07:19:27.424Z,8.73
2019-06-27T07:23:35.929Z,8.77
2019-06-27T07:27:44.419Z,9.87
2019-06-27T07:31:52.915Z,8.33
2019-06-27T07:36:01.475Z,9.13
2019-06-27T07:40:10.222Z,8.37
2019-06-27T07:44:20.345Z,7.53
2019-06-27T07:48:28.891Z,9.03
2019-06-27T07:52:37.452Z,7.50
2019-06-27T07:56:46.470Z,7.90
2019-06-27T08:00:55.215Z,6.97
2019-06-27T08:05:06.410Z,6.20
2019-06-27T08:09:14.902Z,7.10
2019-06-27T08:13:23.461Z,5.40
2019-06-27T08:17:31.950Z,5.87
2019-06-27T08:21:40.438Z,6.53
2019-06-27T08:25:49.114Z,5.93
2019-06-27T08:29:57.612Z,5.60
2019-06-27T08:34:06.122Z,6.80
2019-06-27T08:38:14.637Z,6.30
2019-06-27T08:42:23.140Z,5.60
2019-06-27T08:46:31.657Z,6.00
2019-06-27T08:50:40.225Z,6.10
2019-06-27T08:54:48.746Z,7.53
2019-06-27T08:58:57.331Z,5.93
2019-06-27T09:03:06.002Z,6.10
2019-06-27T09:07:14.487Z,6.63
2019-06-27T09:11:23.086Z,7.33
2019-06-27T09:15:31.802Z,6.53
2019-06-27T09:19:40.376Z,5.07
2019-06-27T09:23:48.941Z,7.42
2019-06-27T09:27:57.421Z,5.90
2019-06-27T09:32:05.931Z,5.90
2019-06-27T09:36:14.391Z,5.83
2019-06-27T09:40:24.035Z,6.00
2019-06-27T09:44:32.536Z,5.40
2019-06-27T09:48:41.093Z,5.97
2019-06-27T09:52:49.635Z,5.27
2019-06-27T09:56:58.191Z,5.40
2019-06-27T10:01:07.242Z,7.00
2019-06-27T10:05:15.860Z,5.40
2019-06-27T10:09:24.361Z,5.50
2019-06-27T10:13:32.947Z,5.27
2019-06-27T10:17:41.440Z,4.83
2019-06-27T10:21:49.908Z,4.90
2019-06-27T10:25:58.421Z,4.93
2019-06-27T10:30:07.591Z,4.73
2019-06-27T10:34:16.167Z,5.47
2019-06-27T10:38:25.041Z,5.15
2019-06-27T10:42:33.603Z,4.10
2019-06-27T10:46:42.073Z,5.40
2019-06-27T10:50:50.928Z,4.53
2019-06-27T10:55:00.834Z,3.80
2019-06-27T10:59:09.320Z,4.80
2019-06-27T11:03:17.875Z,5.17
2019-06-27T11:07:26.446Z,4.50
2019-06-27T11:11:34.996Z,4.40
2019-06-27T11:15:43.502Z,4.80
2019-06-27T11:19:52.924Z,5.17
2019-06-27T11:24:01.689Z,6.03
2019-06-27T11:28:10.427Z,4.00
2019-06-27T11:32:19.133Z,5.20
2019-06-27T11:36:27.604Z,4.57
2019-06-27T11:40:36.079Z,4.60
2019-06-27T11:44:44.654Z,4.70
2019-06-27T11:48:53.147Z,3.93
2019-06-27T11:53:01.732Z,4.27
2019-06-27T11:57:10.287Z,4.70
2019-06-27T12:01:18.781Z,4.87
2019-06-27T12:05:27.289Z,3.90
2019-06-27T12:09:35.806Z,4.07
2019-06-27T12:13:45.220Z,3.90
2019-06-27T12:17:53.725Z,4.30
2019-06-27T12:22:02.325Z,4.63
2019-06-27T12:26:10.834Z,4.73
2019-06-27T12:30:19.582Z,4.60
2019-06-27T12:34:28.150Z,4.70
2019-06-27T12:38:36.740Z,4.23
2019-06-27T12:42:45.195Z,4.97
2019-06-27T12:46:53.690Z,4.50
2019-06-27T12:51:02.199Z,4.67
2019-06-27T12:55:11.146Z,4.43
2019-06-27T12:59:19.777Z,4.33
2019-06-27T13:03:28.289Z,4.47
2019-06-27T13:07:36.845Z,4.30
2019-06-27T13:11:45.324Z,3.97
2019-06-27T13:15:53.903Z,3.87
2019-06-27T13:20:02.976Z,4.00
2019-06-27T13:24:11.572Z,3.93
2019-06-27T13:28:20.062Z,3.50
2019-06-27T13:32:28.538Z,4.00
2019-06-27T13:36:37.032Z,4.10
2019-06-27T13:40:45.573Z,4.10
2019-06-27T13:44:54.057Z,3.30
2019-06-27T13:49:03.201Z,3.80
2019-06-27T13:53:11.688Z,3.83
2019-06-27T13:57:20.403Z,3.80
2019-06-27T14:01:29.154Z,3.57
2019-06-27T14:05:37.646Z,3.60
2019-06-27T14:09:53.822Z,3.60
2019-06-27T14:13:56.336Z,3.40
2019-06-27T14:18:04.894Z,5.27
2019-06-27T14:22:15.319Z,4.53
2019-06-27T14:26:23.591Z,3.73
2019-06-27T14:30:32.061Z,3.80
2019-06-27T14:34:40.557Z,3.43
2019-06-27T14:38:49.055Z,4.10
2019-06-27T14:42:57.510Z,3.73
2019-06-27T14:47:06.042Z,3.50
2019-06-27T14:51:14.552Z,3.67
2019-06-27T14:55:23.158Z,3.70
2019-06-27T14:59:31.613Z,4.40
2019-06-27T15:03:40.099Z,3.67
2019-06-27T15:07:48.589Z,3.30
2019-06-27T15:11:57.096Z,4.07
2019-06-27T15:16:11.659Z,3.43
2019-06-27T15:20:15.986Z,3.40
2019-06-27T15:24:24.562Z,3.90
2019-06-27T15:28:34.242Z,4.30
2019-06-27T15:32:42.978Z,3.90
2019-06-27T15:36:51.521Z,4.10
2019-06-27T15:41:00.337Z,4.47
2019-06-27T15:45:10.790Z,4.37
2019-06-27T15:49:19.346Z,4.13
2019-06-27T15:53:27.851Z,4.20
2019-06-27T15:57:36.378Z,3.80
2019-06-27T16:01:44.870Z,4.37
2019-06-27T16:06:08.157Z,4.10
2019-06-27T16:10:04.894Z,4.10
2019-06-27T16:14:13.371Z,4.03
2019-06-27T16:18:21.856Z,4.53
2019-06-27T16:22:30.411Z,4.30
2019-06-27T16:26:38.909Z,3.80
2019-06-27T16:30:47.470Z,3.90
2019-06-27T16:34:55.970Z,3.97
2019-06-27T16:39:05.615Z,4.00
2019-06-27T16:43:14.157Z,4.57
2019-06-27T16:47:22.633Z,4.00
2019-06-27T16:51:31.094Z,4.00
2019-06-27T16:55:39.581Z,5.00
2019-06-27T16:59:48.071Z,4.47
2019-06-27T17:03:56.522Z,4.70
2019-06-27T17:08:05.089Z,5.07
2019-06-27T17:12:13.569Z,3.50
2019-06-27T17:16:22.408Z,3.80
2019-06-27T17:20:31.107Z,3.83
2019-06-27T17:24:39.673Z,3.20
2019-06-27T17:28:48.332Z,3.60
2019-06-27T17:32:56.963Z,3.50
2019-06-27T17:37:05.452Z,4.00
2019-06-27T17:41:13.937Z,3.20
2019-06-27T17:45:25.420Z,3.70
2019-06-27T17:49:32.774Z,4.37
2019-06-27T17:53:41.235Z,3.40
2019-06-27T17:57:49.811Z,3.80
2019-06-27T18:01:58.254Z,4.53
2019-06-27T18:06:06.744Z,4.00
2019-06-27T18:10:15.655Z,4.43
2019-06-27T18:14:24.117Z,4.58
2019-06-27T18:18:32.617Z,4.20
2019-06-27T18:22:41.166Z,3.97
2019-06-27T18:26:49.662Z,4.40
2019-06-27T18:30:58.175Z,4.17
2019-06-27T18:35:07.066Z,3.93
2019-06-27T18:39:15.518Z,4.60
2019-06-27T18:43:24.119Z,3.90
2019-06-27T18:47:32.659Z,4.27
2019-06-27T18:51:41.217Z,4.80
2019-06-27T18:55:49.709Z,4.80
2019-06-27T18:59:58.208Z,4.17
2019-06-27T19:04:06.737Z,4.50
2019-06-27T19:08:15.304Z,4.63
2019-06-27T19:12:23.811Z,3.77
2019-06-27T19:16:32.438Z,4.50
2019-06-27T19:20:45.654Z,4.10
2019-06-27T19:24:55.781Z,5.70
2019-06-27T19:29:04.284Z,3.63
2019-06-27T19:33:12.815Z,3.73
2019-06-27T19:37:21.555Z,4.30
2019-06-27T19:41:30.081Z,3.97
2019-06-27T19:45:38.571Z,3.50
2019-06-27T19:49:47.048Z,3.90
2019-06-27T19:53:58.017Z,3.83
2019-06-27T19:58:05.697Z,3.77
2019-06-27T20:02:14.191Z,3.60
2019-06-27T20:06:22.712Z,3.70
2019-06-27T20:10:31.286Z,3.57
2019-06-27T20:14:39.814Z,3.57
2019-06-27T20:18:48.322Z,3.60
2019-06-27T20:22:56.810Z,3.60
2019-06-27T20:27:05.305Z,3.23
2019-06-27T20:31:13.752Z,3.20
2019-06-27T20:35:22.324Z,3.80
2019-06-27T20:39:30.814Z,3.77
2019-06-27T20:43:39.325Z,3.50
2019-06-27T20:47:49.595Z,4.00
2019-06-27T20:51:58.151Z,4.17
2019-06-27T20:56:06.638Z,4.37
2019-06-27T21:00:15.375Z,4.40
2019-06-27T21:04:23.840Z,4.87
2019-06-27T21:08:32.323Z,5.93
2019-06-27T21:12:40.877Z,5.33
2019-06-27T21:16:49.370Z,6.13
2019-06-27T21:20:57.901Z,5.97
2019-06-27T21:25:06.554Z,5.17
2019-06-27T21:29:17.113Z,4.90
2019-06-27T21:33:25.230Z,6.57
2019-06-27T21:37:33.721Z,5.40
2019-06-27T21:41:42.198Z,5.57
2019-06-27T21:45:50.705Z,6.70
2019-06-27T21:49:59.346Z,5.37
2019-06-27T21:54:07.838Z,4.93
2019-06-27T21:58:18.553Z,5.40
2019-06-27T22:02:27.031Z,5.70
2019-06-27T22:06:35.515Z,5.73
2019-06-27T22:10:44.162Z,5.17
2019-06-27T22:14:52.618Z,4.73
2019-06-27T22:19:01.119Z,4.50
2019-06-27T22:23:09.680Z,6.60
2019-06-27T22:27:18.178Z,5.70
2019-06-27T22:31:26.640Z,5.00
2019-06-27T22:35:35.236Z,5.20
2019-06-27T22:40:01.694Z,5.07
2019-06-27T22:44:28.509Z,5.40
2019-06-27T22:48:36.463Z,5.20
2019-06-27T22:53:02.932Z,5.10
2019-06-27T22:57:11.509Z,6.90
2019-06-27T23:01:20.057Z,5.37
2019-06-27T23:05:28.549Z,5.60
2019-06-27T23:09:37.082Z,5.97
2019-06-27T23:13:45.816Z,5.90
2019-06-27T23:17:54.941Z,6.00
2019-06-27T23:22:03.429Z,5.10
2019-06-27T23:26:31.345Z,5.47
2019-06-27T23:30:39.818Z,5.03
2019-06-27T23:34:48.414Z,5.23
2019-06-27T23:38:56.897Z,5.07
2019-06-27T23:43:05.393Z,4.87
2019-06-27T23:47:13.878Z,5.50
2019-06-27T23:51:22.363Z,5.20
2019-06-27T23:55:30.953Z,5.53
2019-06-27T23:59:39.520Z,5.40
